Due to severe server failure at the provider, not all demo sites are operational. Will take some days to rebuilt everything.

Demonstration site - Click on the  for more information

This is an optional block. Switch it on/off in your settings-file: $SITE['bannerTop'] = false; or $SITE['bannerBottom'] = false;

You can display ads, any other important text or photo’s using text / html or PHP code.

You can place one or more at the top and or bottom and it can all be different for content / size .



Visit our other weather sites:

Template documentation
and downloads

And another site



Nearby METAR Reports

   
EBAW - Antwerp
Updated: 21-07-2019 10:20
Partly Cloudy  
Partly Cloudy  
   Wind: SW 9.3 km/h
Wind: SW 9.3 km/h
Temperature: 20°C
Dew Point: 15°C
Humidity: 73%
Barometer: 1020 hPa
Clouds: Partly Cloudy
Visibility: More than 10 km
Cloud details: Partly Cloudy 1900 ft
EBAW 210820Z 22005KT 180V270 9999 SCT019 20/15 Q1020 NOSIG
EBLG - Liège
Updated: 21-07-2019 10:20
Mostly Cloudy  
Mostly Cloudy  
   Wind: SW 14.8 km/h
Wind: SW 14.8 km/h
Temperature: 18°C
Dew Point: 14°C
Humidity: 78%
Barometer: 1021 hPa
Clouds: Mostly Cloudy
Visibility: More than 10 km
Cloud details: Mostly Cloudy 1300 ft
EBLG 210820Z 23008KT 190V250 9999 BKN013 18/14 Q1021 BECMG BKN015
EBCV - Mons/Bergen
Updated: 21-07-2019 10:25
Clear  
Clear  
   Wind: WSW 14.8 km/h
Wind: WSW 14.8 km/h
Temperature: 20°C
Dew Point: 14°C
Humidity: 69%
Barometer: 1022 hPa
Clouds: Clear
Visibility: More than 10 km
Cloud details: Clear ft
EBCV 210825Z AUTO 24008KT 9999 NCD 20/14 Q1022 BLU
EHBK - Maastricht
Updated: 21-07-2019 10:25
Overcast  
Overcast  
   Wind: WSW 14.8 km/h
Wind: WSW 14.8 km/h
Temperature: 18°C
Dew Point: 15°C
Humidity: 83%
Barometer: 1020 hPa
Clouds: Overcast
Visibility: More than 10 km
Cloud details: Mostly Cloudy 1100 ft,
Overcast 1300 ft
EHBK 210825Z AUTO 24008KT 200V290 9999 BKN011 OVC013 18/15 Q1020 BECMG SCT020
ELLX - Luxemburg
Updated: 21-07-2019 10:20
Few Clouds  
Few Clouds  
   Wind: WSW 20.4 km/h
Wind: WSW 20.4 km/h
Temperature: 21°C
Dew Point: 13°C
Humidity: 60%
Barometer: 1022 hPa
Clouds: Few Clouds
Visibility: More than 10 km
Cloud details: Few Clouds 3000 ft
ELLX 210820Z 25011KT 9999 FEW030 21/13 Q1022 NOSIG
EBOS - Oostende
Updated: 21-07-2019 10:20
Mostly Cloudy  
Mostly Cloudy  
   Wind: West 20.4 km/h
Wind: West 20.4 km/h
Temperature: 19°C
Dew Point: 15°C
Humidity: 78%
Barometer: 1021 hPa
Clouds: Mostly Cloudy
Visibility: More than 10 km
Cloud details: Few Clouds 1200 ft,
Partly Cloudy 1500 ft,
Mostly Cloudy 2000 ft
EBOS 210820Z 27011KT 9999 FEW012 SCT015 BKN020 19/15 Q1021 NOSIG

Script developed by  Saratoga-weather.org Adapted for the template by  Weerstation Leuven

This is an optional block. Switch it on/off in your settings-file: $SITE['bannerTop'] = false; or $SITE['bannerBottom'] = false;

You can display ads, any other important text or photo’s using text / html or PHP code.

You can place one or more at the top and or bottom and it can all be different for content / size .